Terminal Aerodrome Forecast
Issued by NWS

Home | Current Version | Previous Version | Text Only | Print | Product List | Glossary On
Versions: 1 2 3 4 5 6 7 8 9 10 11 12
000
FTAK31 PAJN 050500
TAFAPG
TAF
PAPG 050520Z 0506/0606 21003KT P6SM -RA SCT012 OVC022
     FM051200 VRB04KT 5SM -RA BR OVC012
     FM051500 VRB03KT 4SM -RA BR BKN008 OVC012
     FM052100 VRB04KT 6SM -RA BR SCT010 OVC015
     FM060100 22005KT P6SM VCSH SCT015 OVC035
      AMD NOT SKED=

USA.gov is the U.S. government's official web portal to all federal, state and local government web resources and services.